Time;durP1;ratioP1;P1;durP2;ratioP2;P2;SDS_P1;SDS_P2;PMS_P1;PMS_P2;Temp;Humidity;BMP_temperature;BMP_pressure;BME280_temperature;BME280_humidity;BME280_pressure;Samples;Min_cycle;Max_cycle;Signal;HPM_P1;HPM_P2
2023/01/07 00:01:42;;;;;;;36.60;23.30;;;13.60;82.80;;;;;;6336266;22;20051;-76
2023/01/07 00:04:11;;;;;;;34.20;23.00;;;13.60;82.80;;;;;;6336226;22;20006;-76
2023/01/07 00:06:39;;;;;;;38.47;23.70;;;13.60;82.80;;;;;;6336298;22;19999;-76
2023/01/07 00:09:08;;;;;;;39.00;24.85;;;13.60;83.00;;;;;;6336366;22;20034;-76
2023/01/07 00:11:37;;;;;;;31.90;21.27;;;13.60;83.50;;;;;;6336336;22;20071;-76
2023/01/07 00:14:05;;;;;;;35.60;22.75;;;13.60;82.90;;;;;;6336735;22;20010;-76
2023/01/07 00:16:32;;;;;;;35.75;24.10;;;13.70;82.80;;;;;;6308713;22;20011;-76
2023/01/07 00:19:00;;;;;;;34.50;22.35;;;13.70;82.60;;;;;;6332143;22;20103;-76
2023/01/07 00:21:27;;;;;;;33.83;23.33;;;13.70;82.50;;;;;;6303367;22;20094;-76
2023/01/07 00:23:58;;;;;;;35.45;22.08;;;13.70;82.10;;;;;;6336575;22;20003;-76
2023/01/07 00:26:25;;;;;;;34.50;22.27;;;13.70;82.10;;;;;;6336254;22;20001;-76
2023/01/07 00:28:52;;;;;;;34.70;22.95;;;13.70;81.90;;;;;;6335776;22;20006;-76
2023/01/07 00:31:26;;;;;;;31.75;21.50;;;13.70;82.00;;;;;;6336387;22;20338;-76
2023/01/07 00:36:23;;;;;;;29.98;21.33;;;13.60;81.80;;;;;;6337690;22;20007;-76
2023/01/07 00:38:54;;;;;;;35.58;22.83;;;13.60;82.00;;;;;;6336296;22;20003;-76
2023/01/07 00:41:20;;;;;;;34.10;21.40;;;13.60;82.10;;;;;;6336621;22;20066;-76
2023/01/07 00:43:46;;;;;;;32.70;21.55;;;13.60;81.90;;;;;;6336539;22;20045;-76
2023/01/07 00:46:13;;;;;;;30.67;20.90;;;13.50;82.10;;;;;;6335633;22;19999;-76
2023/01/07 00:48:39;;;;;;;33.67;21.70;;;13.50;82.30;;;;;;6336080;22;20002;-75
2023/01/07 00:51:05;;;;;;;57.55;39.60;;;13.50;82.50;;;;;;6336184;22;20081;-76
2023/01/07 00:53:31;;;;;;;98.63;71.05;;;13.60;83.00;;;;;;6335835;22;20003;-76
2023/01/07 00:55:57;;;;;;;45.38;33.33;;;13.60;82.90;;;;;;6335981;22;20010;-76
2023/01/07 00:58:24;;;;;;;45.45;29.23;;;13.60;82.50;;;;;;6335479;22;20421;-76
2023/01/07 01:00:55;;;;;;;38.03;23.63;;;13.70;82.70;;;;;;6309753;22;20002;-76
2023/01/07 01:03:21;;;;;;;32.95;21.17;;;13.70;82.50;;;;;;6339475;22;20064;-76
2023/01/07 01:05:47;;;;;;;34.35;22.45;;;13.80;82.10;;;;;;6310942;22;19999;-76
2023/01/07 01:08:13;;;;;;;32.97;22.27;;;13.80;82.10;;;;;;6337884;22;20047;-76
2023/01/07 01:10:38;;;;;;;32.25;21.83;;;13.80;82.10;;;;;;6339262;22;19999;-79
2023/01/07 01:13:04;;;;;;;31.27;20.48;;;13.80;82.00;;;;;;6338846;22;20447;-76
2023/01/07 01:15:30;;;;;;;35.63;21.40;;;13.70;81.80;;;;;;6339072;22;20048;-78
2023/01/07 01:17:55;;;;;;;32.72;21.52;;;13.70;81.50;;;;;;6339550;22;19995;-77
2023/01/07 01:20:21;;;;;;;32.85;21.70;;;13.60;81.40;;;;;;6339376;22;19999;-77
2023/01/07 01:22:47;;;;;;;35.60;21.42;;;13.50;81.40;;;;;;6339539;22;20003;-77
2023/01/07 01:25:13;;;;;;;31.27;20.98;;;13.40;81.60;;;;;;6312033;22;20009;-77
2023/01/07 01:27:39;;;;;;;34.17;21.67;;;13.40;81.80;;;;;;6339441;22;20320;-77
2023/01/07 01:30:06;;;;;;;31.25;20.63;;;13.30;81.70;;;;;;6339610;22;20031;-77
2023/01/07 01:32:31;;;;;;;33.67;20.75;;;13.30;81.90;;;;;;6339203;22;19999;-76
2023/01/07 01:34:57;;;;;;;31.73;20.75;;;13.20;81.90;;;;;;6339393;22;20003;-77
2023/01/07 01:37:23;;;;;;;30.27;19.75;;;13.10;82.00;;;;;;6339144;22;20116;-76
2023/01/07 01:39:49;;;;;;;30.73;21.30;;;13.00;82.10;;;;;;6339217;22;20471;-76
2023/01/07 01:42:18;;;;;;;31.48;20.23;;;12.90;82.50;;;;;;6339240;22;20015;-77
2023/01/07 01:44:50;;;;;;;32.20;21.20;;;12.80;82.60;;;;;;6339376;22;19999;-76
2023/01/07 01:47:22;;;;;;;33.78;21.50;;;12.70;82.90;;;;;;6338851;22;20278;-76
2023/01/07 01:50:18;;;;;;;33.33;21.40;;;12.70;83.10;;;;;;6339135;22;20313;-76
2023/01/07 01:53:00;;;;;;;29.80;19.70;;;12.60;83.40;;;;;;6339305;22;20002;-76
2023/01/07 01:55:39;;;;;;;32.35;20.60;;;12.50;83.70;;;;;;6338898;22;20022;-77
2023/01/07 01:58:10;;;;;;;34.53;20.77;;;12.50;84.00;;;;;;6338483;22;20131;-76
2023/01/07 02:00:36;;;;;;;32.97;21.02;;;12.50;84.20;;;;;;6338989;22;19998;-77
2023/01/07 02:03:05;;;;;;;29.33;19.60;;;12.50;84.40;;;;;;6339388;22;20007;-77
2023/01/07 02:05:34;;;;;;;34.40;21.17;;;12.40;84.50;;;;;;6339091;22;20061;-77
2023/01/07 02:08:00;;;;;;;28.92;19.13;;;12.40;84.50;;;;;;6338478;22;19995;-77
2023/01/07 02:10:27;;;;;;;31.48;20.80;;;12.40;84.50;;;;;;6338881;22;20014;-77
2023/01/07 02:13:21;;;;;;;34.25;22.17;;;12.40;84.60;;;;;;6338652;22;20118;-83
2023/01/07 02:15:56;;;;;;;33.38;20.52;;;12.40;84.60;;;;;;6339598;22;20048;-85
2023/01/07 02:18:35;;;;;;;33.72;20.00;;;12.30;85.10;;;;;;6339419;22;19998;-85
2023/01/07 02:21:22;;;;;;;32.75;19.38;;;12.30;84.70;;;;;;6339016;22;20074;-85
2023/01/07 02:24:18;;;;;;;31.98;20.50;;;12.30;84.60;;;;;;6339071;22;20025;-84
2023/01/07 02:26:56;;;;;;;37.10;21.33;;;12.30;84.70;;;;;;6339156;22;20003;-85
2023/01/07 02:29:47;;;;;;;31.05;19.38;;;12.20;84.70;;;;;;6339246;22;19999;-85
2023/01/07 02:32:24;;;;;;;;;;;12.20;84.80;;;;;;6339625;22;20429;-85
2023/01/07 02:35:14;;;;;;;30.20;18.55;;;12.20;84.90;;;;;;6338811;22;19898;-85
2023/01/07 02:37:58;;;;;;;32.63;19.60;;;12.10;84.90;;;;;;6339128;22;20355;-86
2023/01/07 02:40:37;;;;;;;32.38;20.02;;;12.10;85.00;;;;;;6339251;22;20451;-86
2023/01/07 02:43:16;;;;;;;35.92;22.38;;;12.10;85.10;;;;;;6310897;22;20491;-86
2023/01/07 02:46:21;;;;;;;30.27;19.35;;;12.00;84.90;;;;;;6338895;22;20070;-86
2023/01/07 02:48:47;;;;;;;34.45;20.70;;;12.00;85.10;;;;;;6323075;22;20007;-86
2023/01/07 02:51:13;;;;;;;31.50;20.02;;;12.00;85.10;;;;;;6339250;22;20002;-85
2023/01/07 02:53:42;;;;;;;30.02;18.75;;;11.90;85.20;;;;;;6338944;22;20059;-86
2023/01/07 02:56:20;;;;;;;32.35;20.33;;;11.90;85.30;;;;;;6311360;22;20009;-86
2023/01/07 02:58:48;;;;;;;30.67;20.13;;;11.90;85.40;;;;;;6337615;22;19999;-84
2023/01/07 03:01:23;;;;;;;31.30;19.83;;;11.90;85.50;;;;;;6337486;22;19999;-86
2023/01/07 03:04:22;;;;;;;33.58;21.08;;;11.90;85.40;;;;;;6338632;22;19995;-84
2023/01/07 03:07:09;;;;;;;33.92;21.48;;;11.90;85.40;;;;;;6337879;22;20006;-86
2023/01/07 03:09:52;;;;;;;30.25;19.00;;;11.90;85.40;;;;;;6338831;22;20002;-83
2023/01/07 03:12:45;;;;;;;32.40;21.55;;;11.90;85.50;;;;;;6338904;22;20079;-82
2023/01/07 03:15:18;;;;;;;34.35;21.75;;;11.90;85.40;;;;;;6338658;22;20052;-83
2023/01/07 03:18:10;;;;;;;30.40;19.15;;;11.90;85.50;;;;;;6338775;22;19999;-83
2023/01/07 03:20:40;;;;;;;32.80;21.05;;;11.90;85.50;;;;;;6338524;22;20003;-83
2023/01/07 03:23:09;;;;;;;36.53;21.67;;;11.90;85.50;;;;;;6338428;22;20074;-83
2023/01/07 03:25:39;;;;;;;33.75;22.30;;;11.90;85.50;;;;;;6340453;22;19999;-83
2023/01/07 03:28:08;;;;;;;34.33;21.98;;;11.90;85.60;;;;;;6340506;22;20001;-84
2023/01/07 03:30:35;;;;;;;34.63;21.85;;;11.90;85.70;;;;;;6340846;22;20003;-85
2023/01/07 03:33:18;;;;;;;33.45;21.15;;;11.90;85.80;;;;;;6340786;22;19995;-85
2023/01/07 03:35:48;;;;;;;35.80;21.90;;;11.90;85.90;;;;;;6340839;22;19999;-85
2023/01/07 03:38:15;;;;;;;34.42;21.85;;;11.90;85.90;;;;;;6340574;22;20048;-84
2023/01/07 03:40:41;;;;;;;33.53;21.60;;;11.90;85.90;;;;;;6340870;22;20052;-84
2023/01/07 03:43:16;;;;;;;35.35;22.25;;;11.90;85.90;;;;;;6340424;22;20015;-85
2023/01/07 03:45:42;;;;;;;35.03;22.48;;;11.90;85.90;;;;;;6340721;22;19995;-86
2023/01/07 03:48:08;;;;;;;35.42;22.75;;;11.90;85.90;;;;;;6340633;22;20088;-85
2023/01/07 03:50:34;;;;;;;34.30;22.83;;;11.90;85.80;;;;;;6340882;22;20421;-84
2023/01/07 03:52:59;;;;;;;40.20;24.63;;;11.90;85.70;;;;;;6313285;22;20325;-85
2023/01/07 03:55:25;;;;;;;36.13;21.83;;;11.90;85.70;;;;;;6340672;22;20002;-84
2023/01/07 03:57:52;;;;;;;33.85;22.70;;;11.90;85.60;;;;;;6340560;22;19999;-85
2023/01/07 04:00:18;;;;;;;34.90;22.58;;;11.90;85.80;;;;;;6340771;22;20034;-85
2023/01/07 04:02:43;;;;;;;40.00;23.92;;;11.80;85.80;;;;;;6340402;22;19999;-84
2023/01/07 04:05:10;;;;;;;35.63;22.98;;;11.80;85.80;;;;;;6340403;22;19999;-84
2023/01/07 04:07:36;;;;;;;34.60;22.27;;;11.80;86.00;;;;;;6340346;22;20515;-85
2023/01/07 04:10:04;;;;;;;37.78;23.80;;;11.80;86.10;;;;;;6313242;22;20072;-83
2023/01/07 04:12:29;;;;;;;35.35;22.42;;;11.70;86.20;;;;;;6340497;22;19999;-84
2023/01/07 04:14:55;;;;;;;38.92;23.48;;;11.70;86.40;;;;;;6340300;22;20003;-83
2023/01/07 04:17:21;;;;;;;36.72;22.15;;;11.70;86.40;;;;;;6312959;22;20003;-83
2023/01/07 04:19:46;;;;;;;36.72;23.63;;;11.60;86.50;;;;;;6340285;22;20006;-83
2023/01/07 04:22:12;;;;;;;38.67;23.73;;;11.70;86.80;;;;;;6340650;22;19998;-83
2023/01/07 04:24:38;;;;;;;36.78;22.38;;;11.60;86.90;;;;;;6340167;22;20006;-82
2023/01/07 04:27:04;;;;;;;36.00;23.48;;;11.60;87.00;;;;;;6340192;22;20029;-83
2023/01/07 04:29:29;;;;;;;40.28;24.42;;;11.70;87.10;;;;;;6340090;22;20013;-82
2023/01/07 04:31:56;;;;;;;34.15;22.80;;;11.70;87.10;;;;;;6340424;22;20003;-82
2023/01/07 04:34:22;;;;;;;36.85;23.75;;;11.70;87.10;;;;;;6340341;22;20006;-82
2023/01/07 04:36:48;;;;;;;40.65;25.30;;;11.70;87.10;;;;;;6339520;22;20030;-81
2023/01/07 04:39:14;;;;;;;39.97;24.63;;;11.70;87.10;;;;;;6339774;22;20009;-81
2023/01/07 04:41:39;;;;;;;38.88;23.67;;;11.70;87.10;;;;;;6340115;22;20091;-82
2023/01/07 04:44:05;;;;;;;36.40;23.92;;;11.70;87.00;;;;;;6312102;22;20405;-81
2023/01/07 04:46:31;;;;;;;39.42;23.10;;;11.70;87.10;;;;;;6340084;22;20322;-81
2023/01/07 04:48:57;;;;;;;41.50;24.50;;;11.70;87.30;;;;;;6339431;22;20006;-81
2023/01/07 04:51:22;;;;;;;39.85;25.45;;;11.70;87.20;;;;;;6312197;22;20042;-81
2023/01/07 04:53:48;;;;;;;39.35;25.30;;;11.70;87.00;;;;;;6339410;22;20325;-81
2023/01/07 04:56:14;;;;;;;34.33;23.02;;;11.70;87.20;;;;;;6311724;22;20357;-81
2023/01/07 04:58:39;;;;;;;35.55;23.58;;;11.70;87.40;;;;;;6339493;22;20006;-81
2023/01/07 05:01:05;;;;;;;39.83;25.05;;;11.60;87.20;;;;;;6339651;22;19998;-81
2023/01/07 05:03:33;;;;;;;44.30;26.02;;;11.60;87.30;;;;;;6339999;22;20052;-84
2023/01/07 05:05:59;;;;;;;40.28;24.77;;;11.60;87.40;;;;;;6339669;22;19999;-82
2023/01/07 05:08:26;;;;;;;41.50;26.15;;;11.60;87.50;;;;;;6339847;22;19995;-82
2023/01/07 05:10:52;;;;;;;42.30;25.75;;;11.60;87.60;;;;;;6340070;22;20423;-84
2023/01/07 05:13:19;;;;;;;40.33;24.83;;;11.60;87.60;;;;;;6339659;22;20079;-83
2023/01/07 05:15:45;;;;;;;43.05;26.92;;;11.60;87.60;;;;;;6339565;22;20368;-83
2023/01/07 05:18:11;;;;;;;40.00;25.08;;;11.60;87.60;;;;;;6311949;22;20031;-84
2023/01/07 05:20:37;;;;;;;37.45;23.75;;;11.60;87.70;;;;;;6339664;22;19994;-84
2023/01/07 05:23:04;;;;;;;38.65;24.75;;;11.60;87.70;;;;;;6339714;22;20374;-84
2023/01/07 05:25:31;;;;;;;43.78;24.77;;;11.60;87.80;;;;;;6339447;22;20002;-83
2023/01/07 05:27:57;;;;;;;39.05;24.30;;;11.60;87.80;;;;;;6339504;22;19999;-82
2023/01/07 05:30:23;;;;;;;38.95;25.23;;;11.60;87.80;;;;;;6339759;22;20003;-83
2023/01/07 05:32:48;;;;;;;42.65;25.45;;;11.60;87.80;;;;;;6339868;22;20381;-83
2023/01/07 05:35:14;;;;;;;49.05;29.40;;;11.60;87.80;;;;;;6339423;22;20007;-83
2023/01/07 05:37:40;;;;;;;39.95;24.08;;;11.60;87.80;;;;;;6339231;22;19999;-85
2023/01/07 05:40:06;;;;;;;41.60;25.15;;;11.60;87.70;;;;;;6339494;22;19999;-84
2023/01/07 05:42:32;;;;;;;42.13;26.15;;;11.60;87.80;;;;;;6339279;22;20011;-85
2023/01/07 05:44:58;;;;;;;40.35;24.83;;;11.50;87.80;;;;;;6339105;22;20425;-85
2023/01/07 05:47:24;;;;;;;42.17;26.48;;;11.60;88.00;;;;;;6339633;22;20045;-85
2023/01/07 05:49:49;;;;;;;37.55;24.95;;;11.60;87.90;;;;;;6339589;22;20072;-85
2023/01/07 05:52:15;;;;;;;44.15;26.35;;;11.60;87.90;;;;;;6339622;22;20476;-86
2023/01/07 05:54:41;;;;;;;42.17;26.58;;;11.60;87.90;;;;;;6339375;22;20340;-85
2023/01/07 05:57:06;;;;;;;42.30;26.75;;;11.50;87.90;;;;;;6339407;22;19999;-86
2023/01/07 05:59:35;;;;;;;41.58;26.25;;;11.50;87.90;;;;;;6339235;22;20026;-86
2023/01/07 06:02:01;;;;;;;44.30;27.15;;;11.50;87.80;;;;;;6339008;22;20022;-85
2023/01/07 06:04:27;;;;;;;42.83;26.42;;;11.60;87.90;;;;;;6339263;22;20333;-85
2023/01/07 06:06:53;;;;;;;41.88;25.48;;;11.50;87.80;;;;;;6311480;22;20002;-85
2023/01/07 06:09:18;;;;;;;42.35;25.33;;;11.60;87.80;;;;;;6311797;22;20060;-85
2023/01/07 06:11:44;;;;;;;41.72;25.50;;;11.60;87.90;;;;;;6311234;22;20002;-85
2023/01/07 06:14:10;;;;;;;40.28;24.48;;;11.60;88.00;;;;;;6339555;22;19999;-85
2023/01/07 06:16:36;;;;;;;42.75;26.63;;;11.60;88.00;;;;;;6339057;22;20002;-85
2023/01/07 06:19:02;;;;;;;45.70;27.20;;;11.60;88.00;;;;;;6339059;22;20024;-85
2023/01/07 06:21:28;;;;;;;41.15;27.50;;;11.60;88.00;;;;;;6339476;22;19994;-85
2023/01/07 06:23:55;;;;;;;46.70;27.80;;;11.60;88.10;;;;;;6339086;22;20068;-85
2023/01/07 06:26:21;;;;;;;41.95;25.75;;;11.60;88.10;;;;;;6338753;22;20044;-84
2023/01/07 06:28:46;;;;;;;40.22;25.13;;;11.60;88.20;;;;;;6338984;22;20007;-82
2023/01/07 06:31:12;;;;;;;44.33;28.30;;;11.60;88.10;;;;;;6338919;22;20002;-84
2023/01/07 06:33:39;;;;;;;44.75;27.95;;;11.60;88.00;;;;;;6339287;22;20006;-84
2023/01/07 06:36:05;;;;;;;49.40;29.38;;;11.60;87.90;;;;;;6339042;22;20077;-84
2023/01/07 06:38:31;;;;;;;45.88;29.60;;;11.60;87.70;;;;;;6338891;22;20005;-85
2023/01/07 06:41:01;;;;;;;40.63;26.05;;;11.60;87.40;;;;;;6338542;22;20003;-83
2023/01/07 06:43:27;;;;;;;45.93;26.37;;;11.50;87.60;;;;;;6339037;22;20011;-83
2023/01/07 06:45:53;;;;;;;47.25;28.35;;;11.50;87.70;;;;;;6339135;22;20030;-84
2023/01/07 06:48:19;;;;;;;45.10;28.13;;;11.50;87.70;;;;;;6338959;22;19995;-83
2023/01/07 06:50:45;;;;;;;41.05;26.58;;;11.50;87.70;;;;;;6311077;22;20325;-82
2023/01/07 06:53:10;;;;;;;46.63;28.60;;;11.50;87.80;;;;;;6338403;22;19995;-83
2023/01/07 06:55:36;;;;;;;47.75;29.45;;;11.50;87.80;;;;;;6338926;22;20056;-81
2023/01/07 06:58:02;;;;;;;45.85;27.00;;;11.50;87.90;;;;;;6338675;22;19999;-82
2023/01/07 07:00:28;;;;;;;42.78;26.77;;;11.50;87.90;;;;;;6338866;22;20367;-83
2023/01/07 07:02:53;;;;;;;44.95;27.85;;;11.50;87.90;;;;;;6338793;22;19995;-83
2023/01/07 07:05:19;;;;;;;45.72;27.80;;;11.50;87.80;;;;;;6339440;22;20049;-83
2023/01/07 07:07:45;;;;;;;46.85;27.73;;;11.50;87.80;;;;;;6338621;22;19999;-81
2023/01/07 07:10:11;;;;;;;53.10;29.95;;;11.50;87.70;;;;;;6338628;22;19999;-81
2023/01/07 07:12:37;;;;;;;49.13;28.08;;;11.50;87.30;;;;;;6339033;22;20441;-82
2023/01/07 07:15:05;;;;;;;44.40;26.40;;;11.50;87.40;;;;;;6339146;22;20007;-81
2023/01/07 07:17:31;;;;;;;43.33;26.17;;;11.40;87.50;;;;;;6339096;22;20305;-81
2023/01/07 07:19:57;;;;;;;41.45;26.10;;;11.50;87.50;;;;;;6338749;22;20010;-82
2023/01/07 07:22:22;;;;;;;43.08;25.95;;;11.50;87.50;;;;;;6338391;22;19995;-82
2023/01/07 07:24:48;;;;;;;47.42;27.50;;;11.50;87.40;;;;;;6338527;22;19999;-84
2023/01/07 07:27:14;;;;;;;50.35;28.52;;;11.60;87.40;;;;;;6311060;22;20006;-84
2023/01/07 07:29:40;;;;;;;45.67;27.30;;;11.60;87.30;;;;;;6339026;22;20362;-83
2023/01/07 07:32:05;;;;;;;45.88;27.00;;;11.60;87.30;;;;;;6338389;22;20029;-85
2023/01/07 07:34:31;;;;;;;42.15;26.15;;;11.60;87.20;;;;;;6338732;22;19999;-81
2023/01/07 07:36:57;;;;;;;43.72;26.17;;;11.60;87.30;;;;;;6338873;22;20474;-81
2023/01/07 07:39:22;;;;;;;45.60;27.27;;;11.70;87.30;;;;;;6338415;22;20003;-81
2023/01/07 07:41:48;;;;;;;43.65;27.60;;;11.70;87.00;;;;;;6310801;22;20086;-81
2023/01/07 07:44:14;;;;;;;45.85;26.75;;;11.80;87.00;;;;;;6338496;22;20081;-81
2023/01/07 07:46:39;;;;;;;47.25;26.45;;;11.70;87.40;;;;;;6311160;22;19999;-82
2023/01/07 07:49:05;;;;;;;45.70;27.60;;;11.80;86.90;;;;;;6338265;22;20321;-77
2023/01/07 07:51:32;;;;;;;46.10;28.05;;;11.80;86.80;;;;;;6338413;22;20007;-76
2023/01/07 07:53:58;;;;;;;41.08;25.48;;;11.80;86.60;;;;;;6338372;22;20394;-78
2023/01/07 07:56:24;;;;;;;47.00;27.25;;;11.80;86.50;;;;;;6338371;22;20061;-77
2023/01/07 07:58:50;;;;;;;48.13;27.00;;;11.80;86.40;;;;;;6310363;22;20086;-77
2023/01/07 08:01:17;;;;;;;39.55;25.15;;;11.80;86.30;;;;;;6338204;22;20038;-75
2023/01/07 08:03:55;;;;;;;42.22;25.38;;;11.80;86.30;;;;;;6338159;22;20003;-78
2023/01/07 08:06:21;;;;;;;47.65;25.15;;;11.90;86.40;;;;;;6338370;22;20044;-80
2023/01/07 08:08:47;;;;;;;43.47;24.73;;;11.90;86.40;;;;;;6310445;22;20003;-76
2023/01/07 08:11:13;;;;;;;39.15;23.63;;;12.00;86.70;;;;;;6338083;22;20045;-76
2023/01/07 08:13:39;;;;;;;39.03;24.27;;;12.00;86.40;;;;;;6339552;22;19998;-76
2023/01/07 08:16:05;;;;;;;41.10;24.63;;;12.10;86.10;;;;;;6311575;22;20035;-76
2023/01/07 08:18:31;;;;;;;41.28;24.90;;;12.10;86.00;;;;;;6339445;22;20034;-76
2023/01/07 08:20:57;;;;;;;42.08;24.42;;;12.10;85.60;;;;;;6339697;22;19999;-76
2023/01/07 08:23:22;;;;;;;40.42;24.45;;;12.20;85.40;;;;;;6339885;22;20368;-76
2023/01/07 08:25:48;;;;;;;49.60;27.40;;;12.20;85.10;;;;;;6339355;22;19999;-76
2023/01/07 08:28:15;;;;;;;41.90;25.70;;;;;;;;;;6339549;22;19998;-77
2023/01/07 08:30:41;;;;;;;44.22;25.55;;;12.20;84.40;;;;;;6339127;22;19995;-73
2023/01/07 08:33:12;;;;;;;44.95;25.20;;;12.20;84.80;;;;;;6339985;22;20062;-72
2023/01/07 08:35:38;;;;;;;42.53;24.80;;;12.20;84.80;;;;;;6340169;22;19999;-72
2023/01/07 08:38:07;;;;;;;41.15;24.42;;;12.20;84.80;;;;;;6340227;22;20057;-71
2023/01/07 08:40:34;;;;;;;42.67;25.80;;;12.10;84.60;;;;;;6339676;22;20003;-73
2023/01/07 08:43:01;;;;;;;38.80;23.58;;;12.20;84.60;;;;;;6339541;22;20007;-73
2023/01/07 08:45:27;;;;;;;40.38;24.17;;;12.20;84.70;;;;;;6339748;22;20066;-73
2023/01/07 08:47:56;;;;;;;38.22;23.80;;;12.20;84.20;;;;;;6339142;22;20044;-72
2023/01/07 08:50:23;;;;;;;38.17;23.83;;;12.20;84.50;;;;;;6338931;22;20060;-73
2023/01/07 08:52:49;;;;;;;37.47;22.90;;;12.30;84.50;;;;;;6339700;22;19999;-73
2023/01/07 08:55:15;;;;;;;38.17;24.35;;;12.30;84.40;;;;;;6339827;22;20005;-78
2023/01/07 08:57:40;;;;;;;38.95;23.52;;;12.40;84.40;;;;;;6339875;22;20003;-78
2023/01/07 09:00:07;;;;;;;41.78;24.83;;;12.40;84.30;;;;;;6312415;22;20002;-78
2023/01/07 09:02:32;;;;;;;43.28;25.70;;;12.40;84.10;;;;;;6339933;22;20040;-78
2023/01/07 09:04:58;;;;;;;41.30;26.40;;;12.40;84.00;;;;;;6334067;22;20002;-76
2023/01/07 09:07:24;;;;;;;38.95;23.27;;;12.50;84.10;;;;;;6310602;22;20010;-78
2023/01/07 09:09:49;;;;;;;38.92;24.25;;;12.50;84.00;;;;;;6338328;22;19999;-78
2023/01/07 09:12:15;;;;;;;38.15;25.38;;;12.50;84.00;;;;;;6339533;22;20010;-77
2023/01/07 09:14:41;;;;;;;43.88;26.00;;;12.50;83.80;;;;;;6338822;22;20081;-78
2023/01/07 09:17:06;;;;;;;43.35;26.02;;;12.50;83.70;;;;;;6338278;22;20002;-77
2023/01/07 09:19:32;;;;;;;40.35;25.27;;;12.60;83.50;;;;;;6339279;22;20003;-78
2023/01/07 09:21:57;;;;;;;43.05;25.60;;;12.60;83.50;;;;;;6339299;22;20003;-77
2023/01/07 09:24:23;;;;;;;45.15;26.15;;;12.60;83.50;;;;;;6339443;22;20005;-79
2023/01/07 09:26:49;;;;;;;41.03;25.40;;;12.60;83.90;;;;;;6339372;22;19998;-77
2023/01/07 09:29:15;;;;;;;41.20;25.75;;;12.70;83.30;;;;;;6339285;22;20010;-78
2023/01/07 09:31:40;;;;;;;42.10;24.52;;;12.70;83.20;;;;;;6339567;22;20009;-78
2023/01/07 09:34:06;;;;;;;42.95;26.40;;;12.80;83.20;;;;;;6339300;22;20082;-78
2023/01/07 09:36:32;;;;;;;40.92;25.25;;;12.80;83.20;;;;;;6339334;22;20003;-78
2023/01/07 09:38:58;;;;;;;40.53;25.25;;;12.90;83.10;;;;;;6338967;22;20007;-78
2023/01/07 09:41:56;;;;;;;45.85;26.30;;;13.00;82.80;;;;;;6339059;22;19999;-78
2023/01/07 09:44:45;;;;;;;37.60;24.08;;;13.00;82.60;;;;;;6332956;22;20369;-78
2023/01/07 09:47:15;;;;;;;41.50;25.73;;;13.10;82.60;;;;;;6338893;22;20002;-77
2023/01/07 09:49:43;;;;;;;42.63;24.88;;;13.10;82.40;;;;;;6339233;22;20022;-78
2023/01/07 09:52:18;;;;;;;46.33;25.88;;;13.10;82.00;;;;;;6339050;22;19999;-78
2023/01/07 09:54:47;;;;;;;37.78;24.60;;;13.20;82.00;;;;;;6339012;22;20489;-78
2023/01/07 09:57:15;;;;;;;39.17;24.08;;;13.20;82.30;;;;;;6338897;22;19998;-77
2023/01/07 09:59:41;;;;;;;42.38;25.58;;;13.30;82.50;;;;;;6311414;22;20439;-78
2023/01/07 10:02:38;;;;;;;41.45;26.05;;;13.40;82.10;;;;;;6339393;22;20027;-77
2023/01/07 10:05:32;;;;;;;41.97;25.63;;;13.50;81.90;;;;;;6339299;22;20003;-78
2023/01/07 10:08:32;;;;;;;39.92;23.85;;;13.60;81.50;;;;;;6339000;22;20079;-78
2023/01/07 10:11:23;;;;;;;38.17;24.23;;;13.60;81.10;;;;;;6338527;22;20003;-78
2023/01/07 10:14:05;;;;;;;41.10;26.08;;;13.70;80.80;;;;;;6290918;22;20305;-78
2023/01/07 10:16:55;;;;;;;42.75;26.60;;;13.70;80.90;;;;;;6339168;22;19995;-78
2023/01/07 10:19:43;;;;;;;39.03;24.83;;;13.60;80.30;;;;;;6339122;22;20034;-78
2023/01/07 10:22:20;;;;;;;39.95;25.10;;;13.60;80.80;;;;;;6338997;22;19995;-78
2023/01/07 10:24:52;;;;;;;40.55;24.80;;;13.60;81.10;;;;;;6338987;22;19995;-76
2023/01/07 10:27:29;;;;;;;35.30;22.67;;;13.60;81.40;;;;;;6338686;22;20006;-78
2023/01/07 10:30:00;;;;;;;41.75;24.52;;;13.70;81.10;;;;;;6338808;22;20003;-78
2023/01/07 10:32:31;;;;;;;43.72;26.75;;;13.70;80.60;;;;;;6311178;22;20340;-78
2023/01/07 10:34:59;;;;;;;40.30;24.77;;;13.70;79.90;;;;;;6310491;22;20030;-77
2023/01/07 10:37:33;;;;;;;40.88;24.23;;;13.70;80.30;;;;;;6338648;22;20007;-78
2023/01/07 10:40:11;;;;;;;43.85;24.60;;;13.80;80.50;;;;;;6338592;22;20003;-79
2023/01/07 10:42:54;;;;;;;40.00;24.50;;;13.80;80.60;;;;;;6311128;22;20421;-78
2023/01/07 10:45:38;;;;;;;39.80;23.63;;;13.90;80.70;;;;;;6338965;22;20001;-78
2023/01/07 10:48:47;;;;;;;38.53;24.58;;;14.00;80.30;;;;;;6338726;22;20006;-78
2023/01/07 10:51:38;;;;;;;39.83;24.95;;;14.00;80.30;;;;;;6280199;22;20030;-77
2023/01/07 10:54:04;;;;;;;36.92;23.98;;;13.90;80.10;;;;;;6311184;22;20421;-78
2023/01/07 10:56:45;;;;;;;39.38;25.27;;;14.00;80.20;;;;;;6338779;22;19999;-79
2023/01/07 10:59:17;;;;;;;39.30;25.38;;;14.00;80.20;;;;;;6338857;22;20030;-79
2023/01/07 11:01:51;;;;;;;39.47;25.33;;;14.00;80.00;;;;;;6338867;22;20006;-78
2023/01/07 11:04:18;;;;;;;37.25;23.48;;;14.10;79.90;;;;;;6338740;22;19994;-78
2023/01/07 11:06:50;;;;;;;38.50;23.63;;;14.10;80.10;;;;;;6338158;22;20117;-79
2023/01/07 11:09:26;;;;;;;39.20;25.33;;;14.20;79.70;;;;;;6310834;22;20007;-79
2023/01/07 11:11:54;;;;;;;38.63;24.33;;;14.30;79.00;;;;;;6338050;22;20417;-78
2023/01/07 11:14:24;;;;;;;37.70;24.05;;;14.30;78.90;;;;;;6338623;22;20003;-78
2023/01/07 11:17:02;;;;;;;43.05;26.88;;;14.20;78.80;;;;;;6338175;22;20086;-73
2023/01/07 11:19:43;;;;;;;40.15;26.70;;;14.20;78.80;;;;;;6337912;22;20581;-73
2023/01/07 11:22:31;;;;;;;39.47;24.02;;;14.10;78.50;;;;;;6337853;22;20333;-73
2023/01/07 11:24:58;;;;;;;38.88;25.05;;;14.10;78.60;;;;;;6337400;22;20002;-74
2023/01/07 11:27:27;;;;;;;37.95;23.73;;;14.00;78.60;;;;;;6338247;22;20074;-73
2023/01/07 11:30:02;;;;;;;36.95;24.17;;;14.00;78.90;;;;;;6337955;22;20003;-73
2023/01/07 11:32:31;;;;;;;35.25;23.70;;;13.90;78.90;;;;;;6309877;22;20003;-73
2023/01/07 11:35:01;;;;;;;37.47;23.02;;;13.90;78.90;;;;;;6336121;22;20003;-73
2023/01/07 11:37:30;;;;;;;36.50;22.75;;;13.80;78.90;;;;;;6337671;22;20021;-74
2023/01/07 11:40:01;;;;;;;36.80;23.80;;;13.80;78.70;;;;;;6335856;22;20439;-73
2023/01/07 11:42:37;;;;;;;35.97;22.50;;;13.80;78.80;;;;;;6337401;22;20007;-74
2023/01/07 11:45:13;;;;;;;39.60;24.55;;;13.80;78.90;;;;;;6338337;22;19999;-73
2023/01/07 11:47:59;;;;;;;34.28;22.65;;;13.70;79.00;;;;;;6340186;22;20069;-74
2023/01/07 11:50:55;;;;;;;40.85;25.00;;;13.70;79.00;;;;;;6339083;22;20081;-73
2023/01/07 11:53:42;;;;;;;35.70;23.48;;;13.70;79.10;;;;;;6339438;22;20025;-73
2023/01/07 11:56:20;;;;;;;36.97;22.58;;;13.70;79.50;;;;;;6339829;22;20048;-73
2023/01/07 11:58:48;;;;;;;33.08;21.75;;;13.70;79.80;;;;;;6340007;22;19998;-73
2023/01/07 12:01:17;;;;;;;35.90;22.55;;;13.70;79.90;;;;;;6339971;22;20147;-73
2023/01/07 12:03:52;;;;;;;32.92;20.98;;;13.70;80.00;;;;;;6339012;22;20421;-73
2023/01/07 12:06:32;;;;;;;31.95;21.27;;;13.70;79.70;;;;;;6338407;22;20528;-73
2023/01/07 12:09:22;;;;;;;33.80;20.55;;;13.70;79.70;;;;;;6339810;22;20306;-73
2023/01/07 12:11:49;;;;;;;32.22;21.25;;;13.70;79.70;;;;;;6339668;22;19999;-73
2023/01/07 12:14:15;;;;;;;40.47;24.27;;;13.60;79.80;;;;;;6339388;22;20487;-74
2023/01/07 12:16:41;;;;;;;36.85;24.08;;;13.50;79.90;;;;;;6339220;22;20433;-74
2023/01/07 12:19:22;;;;;;;106.28;72.32;;;13.60;80.30;;;;;;6338693;22;20056;-74
2023/01/07 12:22:02;;;;;;;197.43;137.25;;;13.60;81.00;;;;;;6339236;22;19998;-74
2023/01/07 12:24:37;;;;;;;179.93;130.00;;;13.60;81.40;;;;;;6339272;22;19999;-73
2023/01/07 12:27:18;;;;;;;58.85;41.30;;;13.60;81.40;;;;;;6339114;22;20002;-75
2023/01/07 12:29:52;;;;;;;38.63;25.38;;;13.70;81.10;;;;;;6339669;22;20026;-75
2023/01/07 12:32:25;;;;;;;36.72;22.85;;;13.60;80.00;;;;;;6338328;22;19995;-73
2023/01/07 12:35:02;;;;;;;35.95;22.63;;;13.50;80.40;;;;;;6337254;22;20025;-74
2023/01/07 12:38:01;;;;;;;35.65;22.75;;;13.50;80.50;;;;;;6336892;22;20036;-74
2023/01/07 12:40:35;;;;;;;37.63;24.15;;;13.50;80.70;;;;;;6328055;22;20010;-74
2023/01/07 12:43:11;;;;;;;35.88;23.35;;;13.60;80.90;;;;;;6337643;22;20086;-73
2023/01/07 12:45:53;;;;;;;34.70;22.40;;;13.60;80.90;;;;;;6337517;22;20001;-74
2023/01/07 12:48:45;;;;;;;34.22;22.38;;;13.60;80.40;;;;;;6339112;22;20002;-73